Sunday, May 27, 2018, 5:40 PM GMT
Back to Local

CYFC, Fredericton, N. B.

Location: , , Canada Lat: 45.867
Local Time: 5:40 PM GMT (17:40 GMT) Lon: -66.533
Time Zone: GMT Elev: 55 ft

Show me the last for .
Show Decoded

2018-05-27 17:00 METAR CYFC 271700Z AUTO 04006KT 360V060 9SM CLR 17/03 A3026 RMK SLP250 =
2018-05-27 16:00 METAR CYFC 271600Z AUTO 02004KT 340V080 9SM CLR 15/04 A3029 RMK SLP258 =
2018-05-27 15:00 METAR CYFC 271500Z AUTO 06005KT 030V130 9SM CLR 13/02 A3030 RMK SLP262 =
2018-05-27 14:00 METAR CYFC 271400Z AUTO 09003KT 030V180 9SM CLR 12/03 A3031 RMK SLP266 =
2018-05-27 13:00 METAR CYFC 271300Z AUTO 05005KT 030V120 9SM CLR 10/04 A3031 RMK SLP267 =
2018-05-27 12:00 METAR CYFC 271200Z AUTO 06007KT 9SM CLR 09/04 A3030 RMK SLP263 =
2018-05-27 11:00 METAR CYFC 271100Z AUTO 06005KT 020V090 9SM CLR 08/06 A3029 RMK SLP260 =
2018-05-27 10:00 METAR CYFC 271000Z AUTO 04005KT 9SM CLR 05/04 A3028 RMK SLP255 =
2018-05-27 09:00 METAR CYFC 270900Z AUTO 03008KT 9SM CLR 03/03 A3027 RMK SLP251 =
2018-05-27 08:00 METAR CYFC 270800Z AUTO 01004KT 9SM CLR 03/03 A3025 RMK SLP244 =
2018-05-27 07:00 METAR CYFC 270700Z AUTO 04005KT 9SM CLR 04/03 A3022 RMK SLP235 =
2018-05-27 06:00 METAR CYFC 270600Z AUTO 04007KT 9SM CLR 04/04 A3020 RMK SLP227 =
2018-05-27 05:00 METAR CYFC 270500Z AUTO 04008KT 9SM CLR 06/04 A3017 RMK SLP220 =
2018-05-27 04:00 METAR CYFC 270400Z AUTO 03006KT 9SM CLR 06/04 A3014 RMK SLP210 =
2018-05-27 03:00 METAR CYFC 270300Z AUTO 02005KT 9SM CLR 08/04 A3011 RMK SLP199 =
2018-05-27 02:00 METAR CYFC 270200Z AUTO 03005KT 9SM CLR 10/04 A3008 RMK SLP189 =
2018-05-27 01:00 METAR CYFC 270100Z AUTO 07010KT 9SM FEW055 12/04 A3004 RMK PRESRR SLP175 =
2018-05-27 00:00 METAR CYFC 270000Z AUTO 07011G16KT 9SM SCT055 SCT067 14/06 A2999 RMK PRESRR
                 SLP157 =
2018-05-26 23:00 METAR CYFC 262300Z AUTO 08015KT 9SM CLR 16/07 A2992 RMK SLP135 DENSITY ALT 100FT
                 =
2018-05-26 22:11 METAR CYFC 262211Z AUTO 07012KT 9SM CLR 17/08 A2988 RMK WSHFT AT 2200Z PRESRR
                 SLP122 DENSITY ALT 300FT =
2018-05-26 22:00 METAR CYFC 262200Z AUTO 35013G18KT 9SM CLR 20/00 A2987 RMK PRESRR SLP117 DENSITY
                 ALT 600FT =
2018-05-26 21:00 METAR CYFC 262100Z AUTO 33012KT 9SM CLR 21/04 A2982 RMK SLP098 DENSITY ALT 800FT
                 =
2018-05-26 20:00 METAR CYFC 262000Z AUTO 33010G15KT 9SM CLR 20/04 A2980 RMK SLP092 DENSITY ALT
                 700FT =
2018-05-26 19:00 METAR CYFC 261900Z AUTO 33015G20KT 260V340 9SM CLR 20/03 A2977 RMK SLP082
                 DENSITY ALT 800FT =
2018-05-26 18:22 METAR CYFC 261822Z AUTO 35016KT 290V010 9SM CLR 19/06 A2975 RMK SLP075 DENSITY
                 ALT 700FT =
2018-05-26 18:00 METAR CYFC 261800Z AUTO 30004KT 250V360 9SM CLR 18/11 A2974 RMK SLP071 DENSITY
                 ALT 600FT =

Support USWX by starting your Amazon purchase here.